Time;durP1;ratioP1;P1;durP2;ratioP2;P2;SDS_P1;SDS_P2;PMS_P1;PMS_P2;Temp;Humidity;BMP_temperature;BMP_pressure;BME280_temperature;BME280_humidity;BME280_pressure;Samples;Min_cycle;Max_cycle;Signal;HPM_P1;HPM_P2
2022/03/21 00:01:57;;;;;;;68.78;43.00;;;;;;;0.89;73.14;102763.00;5026192;28;20107;-87
2022/03/21 00:04:23;;;;;;;66.97;41.05;;;;;;;0.84;73.29;102757.69;5026938;28;20117;-87
2022/03/21 00:06:49;;;;;;;64.00;40.70;;;;;;;0.86;72.92;102766.44;5024579;28;20104;-87
2022/03/21 00:09:15;;;;;;;64.75;40.42;;;;;;;0.84;73.62;102762.94;5027493;28;20030;-86
2022/03/21 00:11:40;;;;;;;65.40;41.83;;;;;;;0.83;73.39;102762.88;5027762;28;20029;-86
2022/03/21 00:14:06;;;;;;;66.50;41.88;;;;;;;0.81;73.38;102764.59;5026684;28;20025;-87
2022/03/21 00:16:31;;;;;;;69.47;41.30;;;;;;;0.77;73.20;102766.28;5026160;28;20041;-87
2022/03/21 00:18:56;;;;;;;66.65;42.28;;;;;;;0.80;73.58;102768.09;5026135;28;20034;-87
2022/03/21 00:21:22;;;;;;;66.75;42.42;;;;;;;0.78;73.31;102769.78;5026099;28;20037;-87
2022/03/21 00:23:48;;;;;;;66.30;42.65;;;;;;;0.74;73.36;102768.81;5026304;28;20033;-87
2022/03/21 00:26:15;;;;;;;67.30;41.00;;;;;;;0.68;73.38;102769.59;5026416;28;20414;-87
2022/03/21 00:28:40;;;;;;;66.97;41.80;;;;;;;0.69;73.57;102770.47;5031064;28;20056;-86
2022/03/21 00:31:06;;;;;;;65.10;41.65;;;;;;;0.71;73.78;102768.75;5030050;28;20049;-86
2022/03/21 00:33:32;;;;;;;63.90;40.30;;;;;;;0.68;73.85;102766.09;5030608;28;20766;-86
2022/03/21 00:35:58;;;;;;;66.00;41.20;;;;;;;0.64;73.79;102765.13;5028534;28;20093;-86
2022/03/21 00:38:24;;;;;;;66.63;41.45;;;;;;;0.62;73.79;102776.41;5026639;28;20037;-86
2022/03/21 00:40:49;;;;;;;66.00;41.65;;;;;;;0.62;74.02;102789.53;5027768;28;20021;-86
2022/03/21 00:43:19;;;;;;;66.57;43.90;;;;;;;0.58;74.36;102774.59;5028091;28;22250;-87
2022/03/21 00:45:46;;;;;;;69.10;42.55;;;;;;;0.60;74.00;102781.66;5025569;28;20493;-86
2022/03/21 00:48:12;;;;;;;70.97;43.00;;;;;;;0.55;74.18;102771.94;5032007;28;20116;-87
2022/03/21 00:50:37;;;;;;;68.65;42.58;;;;;;;0.55;74.34;102772.81;5031398;28;20036;-87
2022/03/21 00:53:02;;;;;;;70.47;42.45;;;;;;;0.52;74.50;102777.09;5028117;28;20471;-87
2022/03/21 00:55:29;;;;;;;68.70;42.08;;;;;;;0.47;74.10;102769.13;5019281;28;20092;-87
2022/03/21 00:57:55;;;;;;;68.55;43.17;;;;;;;0.45;74.47;102779.56;5026445;28;20196;-87
2022/03/21 01:00:26;;;;;;;63.70;41.65;;;;;;;0.41;74.82;102775.09;5026048;28;20105;-86
2022/03/21 01:02:53;;;;;;;67.10;43.13;;;;;;;0.38;74.52;102775.06;5030113;28;20021;-86
2022/03/21 01:05:19;;;;;;;65.70;41.50;;;;;;;0.34;75.10;102781.09;5021775;28;20029;-87
2022/03/21 01:07:44;;;;;;;71.75;42.30;;;;;;;0.34;74.41;102778.47;5026652;28;20037;-86
2022/03/21 01:10:14;;;;;;;65.60;41.75;;;;;;;0.28;75.00;102786.16;5031000;28;20494;-87
2022/03/21 01:12:40;;;;;;;66.00;41.92;;;;;;;0.30;74.36;102794.97;5026807;28;20030;-87
2022/03/21 01:15:07;;;;;;;66.93;41.55;;;;;;;0.23;74.84;102782.56;5023403;28;20022;-89
2022/03/21 01:17:33;;;;;;;64.82;41.47;;;;;;;0.21;75.22;102784.28;5027881;28;20068;-87
2022/03/21 01:19:58;;;;;;;63.58;40.25;;;;;;;0.23;75.68;102793.03;5024897;28;20029;-87
2022/03/21 01:22:23;;;;;;;68.03;42.28;;;;;;;0.15;75.62;102784.13;5035845;28;20191;-87
2022/03/21 01:24:49;;;;;;;68.28;41.45;;;;;;;0.13;75.69;102789.34;5029627;28;20044;-87
2022/03/21 01:27:14;;;;;;;67.55;42.17;;;;;;;0.11;75.59;102788.41;5022920;28;20457;-87
2022/03/21 01:29:40;;;;;;;65.53;40.83;;;;;;;0.10;75.84;102793.63;5026519;28;20519;-87
2022/03/21 01:32:05;;;;;;;63.20;39.22;;;;;;;0.08;75.91;102795.28;5026484;28;20469;-87
2022/03/21 01:34:31;;;;;;;63.92;41.25;;;;;;;0.05;75.98;102790.00;5021922;28;20116;-87
2022/03/21 01:36:56;;;;;;;67.55;42.10;;;;;;;0.02;75.76;102800.41;5025470;28;20068;-88
2022/03/21 01:39:22;;;;;;;64.22;40.83;;;;;;;-0.02;75.59;102794.22;5025713;28;20108;-87
2022/03/21 01:41:47;;;;;;;65.10;41.75;;;;;;;-0.08;76.40;102779.25;5026197;28;20025;-88
2022/03/21 01:44:13;;;;;;;66.20;42.03;;;;;;;-0.09;76.15;102798.41;5027815;28;20057;-86
2022/03/21 01:46:40;;;;;;;66.13;40.80;;;;;;;-0.10;76.09;102787.91;5025931;28;20036;-86
2022/03/21 01:49:07;;;;;;;69.55;41.17;;;;;;;-0.09;75.80;102793.16;5025189;28;20095;-87
2022/03/21 01:51:35;;;;;;;68.78;41.47;;;;;;;-0.14;76.00;102794.78;5025064;28;20057;-86
2022/03/21 01:56:47;;;;;;;63.55;39.85;;;;;;;-0.16;75.95;102799.13;5028931;28;20056;-86
2022/03/21 01:59:14;;;;;;;61.20;38.25;;;;;;;-0.17;75.83;102794.69;5031440;28;20069;-87
2022/03/21 02:01:40;;;;;;;66.25;40.38;;;;;;;-0.20;76.53;102796.38;5038415;28;20037;-87
2022/03/21 02:04:05;;;;;;;63.00;38.38;;;;;;;-0.28;76.25;102786.59;5024173;28;20037;-87
2022/03/21 02:06:31;;;;;;;64.10;39.42;;;;;;;-0.34;77.02;102796.03;5026548;28;20062;-86
2022/03/21 02:08:58;;;;;;;67.88;39.38;;;;;;;-0.35;77.20;102799.50;5042097;28;20422;-86
2022/03/21 02:11:25;;;;;;;64.35;39.13;;;;;;;-0.41;77.29;102801.97;5026013;28;20470;-87
2022/03/21 02:13:52;;;;;;;59.53;38.65;;;;;;;-0.46;77.72;102793.09;5020574;28;20599;-87
2022/03/21 02:16:18;;;;;;;63.90;39.47;;;;;;;-0.49;77.14;102795.66;5024984;28;20093;-87
2022/03/21 02:18:45;;;;;;;64.75;40.33;;;;;;;-0.46;77.35;102800.94;5024016;28;20104;-86
2022/03/21 02:21:16;;;;;;;67.00;39.83;;;;;;;-0.47;77.67;102801.78;5023434;28;20056;-87
2022/03/21 02:23:55;;;;;;;70.55;42.20;;;;;;;-0.47;77.87;102800.06;5020432;28;21774;-87
2022/03/21 02:26:21;;;;;;;59.78;38.58;;;;;;;-0.47;77.38;102804.41;5023142;28;20341;-87
2022/03/21 02:28:48;;;;;;;63.30;38.97;;;;;;;-0.50;77.73;102807.84;5024638;28;20204;-87
2022/03/21 02:31:15;;;;;;;62.63;38.85;;;;;;;-0.51;77.88;102809.56;5025427;28;20048;-87
2022/03/21 02:33:41;;;;;;;65.50;39.53;;;;;;;-0.53;78.07;102808.63;5027125;28;20038;-87
2022/03/21 02:36:08;;;;;;;64.65;38.55;;;;;;;-0.57;77.81;102806.78;5023193;28;20033;-87
2022/03/21 02:38:35;;;;;;;65.60;40.40;;;;;;;-0.58;77.97;102802.41;5024734;28;20072;-87
2022/03/21 02:41:00;;;;;;;67.55;41.78;;;;;;;-0.60;78.08;102798.84;5024524;28;20033;-87
2022/03/21 02:43:25;;;;;;;63.13;40.13;;;;;;;-0.61;77.84;102806.66;5024390;28;20056;-86
2022/03/21 02:45:50;;;;;;;63.90;39.85;;;;;;;-0.64;78.30;102797.00;5025861;28;20099;-87
2022/03/21 02:48:18;;;;;;;65.75;40.47;;;;;;;-0.65;77.99;102799.59;5028674;28;20037;-86
2022/03/21 02:51:02;;;;;;;65.88;40.42;;;;;;;-0.69;77.76;102797.72;5023543;28;20025;-87
2022/03/21 02:53:32;;;;;;;63.17;38.97;;;;;;;-0.70;78.12;102798.59;5032072;28;20056;-85
2022/03/21 02:55:58;;;;;;;65.72;40.63;;;;;;;-0.75;77.97;102795.84;5023799;28;20467;-86
2022/03/21 02:58:24;;;;;;;66.40;40.05;;;;;;;-0.73;78.08;102801.13;5024361;28;20040;-86
2022/03/21 03:00:49;;;;;;;65.60;40.58;;;;;;;-0.77;78.55;102792.28;5026949;28;20034;-86
2022/03/21 03:03:15;;;;;;;65.63;40.53;;;;;;;-0.79;78.19;102804.47;5022441;28;20049;-86
2022/03/21 03:05:40;;;;;;;65.45;39.65;;;;;;;-0.84;78.12;102786.00;5025202;28;20049;-86
2022/03/21 03:08:05;;;;;;;64.88;39.72;;;;;;;-0.88;78.10;102797.25;5024970;28;20033;-88
2022/03/21 03:10:31;;;;;;;70.03;42.20;;;;;;;-0.91;78.47;102791.94;5028628;28;20022;-88
2022/03/21 03:12:56;;;;;;;64.47;39.42;;;;;;;-0.90;78.43;102808.50;5038324;28;20037;-87
2022/03/21 03:15:21;;;;;;;62.30;39.22;;;;;;;-0.96;78.51;102810.91;5028711;28;20110;-87
2022/03/21 03:17:47;;;;;;;66.38;41.15;;;;;;;-1.06;78.47;102802.81;5028810;28;20129;-87
2022/03/21 03:20:12;;;;;;;61.90;39.28;;;;;;;-1.07;78.59;102797.56;5030586;28;20087;-87
2022/03/21 03:22:39;;;;;;;63.88;38.17;;;;;;;-1.07;78.71;102797.56;5029244;28;20030;-87
2022/03/21 03:25:05;;;;;;;63.50;39.92;;;;;;;-1.07;78.85;102806.28;5026806;28;20040;-87
2022/03/21 03:27:31;;;;;;;66.05;40.03;;;;;;;-1.08;78.60;102803.66;5029244;28;20033;-87
2022/03/21 03:29:57;;;;;;;63.38;38.60;;;;;;;-1.07;78.82;102808.91;5028923;28;20033;-87
2022/03/21 03:32:23;;;;;;;63.63;40.40;;;;;;;-1.06;79.13;102802.81;5027342;28;20025;-87
2022/03/21 03:34:48;;;;;;;64.63;39.63;;;;;;;-1.08;79.07;102799.31;5024993;28;20467;-87
2022/03/21 03:37:13;;;;;;;64.13;39.28;;;;;;;-1.14;79.18;102799.09;5028916;28;20561;-86
2022/03/21 03:39:39;;;;;;;66.72;40.33;;;;;;;-1.08;79.43;102811.47;5027888;28;20025;-86
2022/03/21 03:42:04;;;;;;;64.45;38.97;;;;;;;-1.12;79.62;102815.72;5044651;28;20036;-88
2022/03/21 03:44:30;;;;;;;66.65;39.25;;;;;;;-1.16;79.69;102811.25;5029552;28;20025;-88
2022/03/21 03:46:55;;;;;;;66.47;40.28;;;;;;;-1.16;79.78;102816.50;5025835;28;20068;-87
2022/03/21 03:49:21;;;;;;;65.68;39.58;;;;;;;-1.21;79.38;102814.56;5026701;28;20128;-87
2022/03/21 03:51:46;;;;;;;64.43;39.08;;;;;;;-1.22;80.19;102816.28;5028407;28;20541;-87
2022/03/21 03:54:11;;;;;;;65.68;39.95;;;;;;;-1.28;79.87;102816.13;5025923;28;20038;-86
2022/03/21 03:56:37;;;;;;;62.67;38.33;;;;;;;-1.31;80.14;102813.41;5028192;28;20029;-86
2022/03/21 03:59:02;;;;;;;62.05;38.17;;;;;;;-1.34;79.58;102813.31;5032548;28;20065;-87
2022/03/21 04:01:27;;;;;;;65.70;39.55;;;;;;;-1.32;79.88;102819.50;5028183;28;20080;-87
2022/03/21 04:03:53;;;;;;;63.42;39.17;;;;;;;-1.40;79.84;102826.22;5023112;28;20034;-87
2022/03/21 04:06:20;;;;;;;63.83;39.42;;;;;;;-1.38;79.89;102835.88;5028908;28;20075;-88
2022/03/21 04:08:48;;;;;;;63.33;39.03;;;;;;;-1.44;79.75;102825.22;5027893;28;20686;-87
2022/03/21 04:11:14;;;;;;;63.83;37.42;;;;;;;-1.45;79.57;102823.47;5026290;28;20029;-87
2022/03/21 04:13:40;;;;;;;64.30;38.25;;;;;;;-1.43;79.87;102831.34;5028090;28;20104;-86
2022/03/21 04:16:06;;;;;;;63.63;38.92;;;;;;;-1.45;80.15;102826.06;5022421;28;20097;-86
2022/03/21 04:18:32;;;;;;;61.30;37.33;;;;;;;-1.49;80.13;102821.59;5026947;28;20108;-86
2022/03/21 04:20:57;;;;;;;66.05;38.42;;;;;;;-1.45;79.80;102817.34;5023514;28;20048;-88
2022/03/21 04:23:22;;;;;;;66.85;38.58;;;;;;;-1.47;80.06;102812.06;5026469;28;20036;-87
2022/03/21 04:25:48;;;;;;;65.50;38.92;;;;;;;-1.52;80.39;102811.94;5032396;28;20043;-87
2022/03/21 04:28:17;;;;;;;66.78;39.22;;;;;;;-1.47;80.59;102824.25;5026242;28;20053;-88
2022/03/21 04:30:43;;;;;;;63.70;37.38;;;;;;;-1.49;80.46;102818.09;5032204;28;20034;-87
2022/03/21 04:33:10;;;;;;;66.82;38.65;;;;;;;-1.49;80.57;102818.09;5024317;28;20033;-88
2022/03/21 04:35:36;;;;;;;66.30;39.45;;;;;;;-1.53;80.53;102820.63;5027113;28;20029;-87
2022/03/21 04:38:02;;;;;;;65.95;38.85;;;;;;;-1.59;80.75;102809.09;5024987;28;20037;-88
2022/03/21 04:40:27;;;;;;;64.68;38.60;;;;;;;-1.55;80.39;102816.16;5025816;28;20025;-88
2022/03/21 04:42:53;;;;;;;64.13;38.05;;;;;;;-1.57;80.50;102829.19;5025622;28;20036;-88
2022/03/21 04:45:18;;;;;;;59.95;37.17;;;;;;;-1.63;80.40;102818.56;5031753;28;20093;-88
2022/03/21 04:47:45;;;;;;;63.88;38.58;;;;;;;-1.66;80.50;102836.75;5024835;28;20111;-88
2022/03/21 04:50:11;;;;;;;73.15;40.00;;;;;;;-1.69;81.71;102833.16;5024491;28;20546;-87
2022/03/21 04:52:36;;;;;;;68.13;40.00;;;;;;;-1.68;81.42;102841.03;5026130;28;20156;-87
2022/03/21 04:55:03;;;;;;;62.63;38.17;;;;;;;-1.67;81.70;102842.81;5027219;28;20495;-88
2022/03/21 04:57:29;;;;;;;67.10;37.88;;;;;;;-1.70;81.98;102840.09;5040715;28;20475;-88
2022/03/21 04:59:55;;;;;;;67.55;40.60;;;;;;;-1.71;81.79;102830.50;5024657;28;20098;-87
2022/03/21 05:02:21;;;;;;;66.22;37.97;;;;;;;-1.71;81.58;102845.25;5023843;28;20025;-88
2022/03/21 05:04:46;;;;;;;67.45;39.50;;;;;;;-1.67;81.48;102836.69;5025967;28;20379;-87
2022/03/21 05:07:16;;;;;;;66.10;38.38;;;;;;;-1.68;81.60;102846.25;5025589;28;20492;-87
2022/03/21 05:09:42;;;;;;;63.22;38.60;;;;;;;-1.72;81.32;102838.25;5027417;28;20116;-87
2022/03/21 05:12:12;;;;;;;66.60;38.80;;;;;;;-1.79;81.56;102837.22;5025793;28;20657;-87
2022/03/21 05:14:38;;;;;;;67.53;40.05;;;;;;;-1.79;81.64;102845.03;5024664;28;20030;-88
2022/03/21 05:17:05;;;;;;;67.20;39.25;;;;;;;-1.81;81.52;102844.09;5025710;28;20034;-87
2022/03/21 05:19:32;;;;;;;62.33;36.90;;;;;;;-1.89;80.12;102845.56;5028840;28;20041;-87
2022/03/21 05:21:57;;;;;;;68.00;39.00;;;;;;;-1.93;81.58;102846.28;5024831;28;20611;-87
2022/03/21 05:32:34;;;;;;;62.15;38.05;;;;;;;-1.94;82.23;102848.03;5026519;28;20040;-88
2022/03/21 05:37:43;;;;;;;70.05;39.38;;;;;;;-1.92;82.18;102853.28;5026089;28;20159;-87
2022/03/21 05:42:54;;;;;;;66.20;38.00;;;;;;;-1.97;82.33;102837.47;5024855;28;20075;-87
2022/03/21 05:45:20;;;;;;;68.78;38.80;;;;;;;-1.94;82.13;102847.16;5025671;28;20029;-87
2022/03/21 05:50:34;;;;;;;70.53;40.00;;;;;;;-1.90;81.83;102851.63;5027907;28;20120;-87
2022/03/21 05:52:59;;;;;;;69.63;40.28;;;;;;;-1.90;82.31;102849.91;5024094;28;20049;-87
2022/03/21 05:55:24;;;;;;;69.70;41.75;;;;;;;-1.92;82.52;102850.66;5023995;28;20049;-88
2022/03/21 05:57:49;;;;;;;71.30;41.72;;;;;;;-1.91;83.11;102857.69;5030574;28;20485;-88
2022/03/21 06:00:21;;;;;;;65.75;39.30;;;;;;;-1.95;82.80;102840.16;5023329;28;20029;-87
2022/03/21 06:02:47;;;;;;;70.85;41.50;;;;;;;-1.85;82.71;102858.75;5027512;28;20043;-87
2022/03/21 06:05:12;;;;;;;69.45;40.60;;;;;;;-1.89;82.72;102850.78;5032029;28;20025;-87
2022/03/21 06:07:38;;;;;;;69.60;40.58;;;;;;;-1.80;82.93;102861.50;5024174;28;20477;-87
2022/03/21 06:10:03;;;;;;;70.68;41.58;;;;;;;-1.76;82.60;102864.31;5027251;28;20414;-87
2022/03/21 06:12:30;;;;;;;71.05;40.15;;;;;;;-1.71;82.75;102861.84;5020879;28;20033;-88
2022/03/21 06:14:56;;;;;;;73.80;40.75;;;;;;;-1.70;83.14;102855.75;5025374;28;20029;-87
2022/03/21 06:17:21;;;;;;;65.53;39.38;;;;;;;-1.61;83.01;102868.22;5024730;28;20032;-87
2022/03/21 06:19:46;;;;;;;67.28;40.45;;;;;;;-1.61;82.94;102863.88;5026826;28;20033;-88
2022/03/21 06:22:11;;;;;;;71.10;40.83;;;;;;;-1.57;82.52;102860.53;5040213;28;20029;-88
2022/03/21 06:24:37;;;;;;;69.78;41.03;;;;;;;-1.51;83.06;102860.69;5024430;28;20467;-88
2022/03/21 06:27:02;;;;;;;70.05;40.25;;;;;;;-1.44;82.71;102863.53;5025481;28;20076;-88
2022/03/21 06:29:28;;;;;;;65.90;38.10;;;;;;;-1.45;82.67;102857.41;5031994;28;20029;-86
2022/03/21 06:31:53;;;;;;;73.50;42.42;;;;;;;-1.35;82.83;102871.63;5023854;28;20040;-88
2022/03/21 06:34:18;;;;;;;73.82;42.13;;;;;;;-1.32;82.88;102870.00;5020103;28;20026;-87
2022/03/21 06:36:44;;;;;;;71.10;42.30;;;;;;;-1.30;82.94;102864.81;5024153;28;20106;-86
2022/03/21 06:39:09;;;;;;;76.63;42.17;;;;;;;-1.18;83.18;102873.03;5026504;28;20041;-86
2022/03/21 06:41:34;;;;;;;72.25;42.28;;;;;;;-0.96;83.24;102878.88;5024088;28;20025;-87
2022/03/21 06:44:00;;;;;;;78.65;44.72;;;;;;;-0.66;82.89;102881.50;5024645;28;20034;-87
2022/03/21 06:46:25;;;;;;;82.30;46.28;;;;;;;-0.39;82.17;102889.22;5030102;28;20029;-87
2022/03/21 06:48:50;;;;;;;76.00;45.05;;;;;;;-0.08;81.04;102883.94;5030642;28;20112;-87
2022/03/21 06:51:16;;;;;;;73.20;43.42;;;;;;;0.24;80.17;102892.59;5028850;28;20029;-87
2022/03/21 06:53:41;;;;;;;70.78;42.13;;;;;;;0.51;79.25;102881.03;5024081;28;20492;-87
2022/03/21 06:56:07;;;;;;;66.38;40.22;;;;;;;0.85;78.40;102887.03;5028348;28;20045;-86
2022/03/21 06:58:32;;;;;;;68.55;41.72;;;;;;;1.11;78.21;102885.81;5027803;28;20025;-87
2022/03/21 07:00:58;;;;;;;61.60;38.60;;;;;;;1.42;77.04;102883.81;5030255;28;20387;-87
2022/03/21 07:03:24;;;;;;;62.20;38.05;;;;;;;1.67;76.32;102886.06;5025610;28;20037;-86
2022/03/21 07:05:49;;;;;;;64.03;37.97;;;;;;;1.97;75.79;102888.34;5028564;28;20041;-88
2022/03/21 07:08:15;;;;;;;60.30;37.38;;;;;;;2.29;75.07;102901.13;5027738;28;20025;-87
2022/03/21 07:10:40;;;;;;;63.65;38.17;;;;;;;2.52;74.29;102898.00;5025861;28;20500;-86
2022/03/21 07:13:06;;;;;;;61.47;37.80;;;;;;;2.82;73.45;102905.44;5034146;28;20041;-87
2022/03/21 07:15:32;;;;;;;56.55;37.30;;;;;;;3.17;73.09;102912.06;5037421;28;20033;-87
2022/03/21 07:17:58;;;;;;;59.40;36.97;;;;;;;3.48;72.04;102905.44;5036183;28;20025;-88
2022/03/21 07:20:27;;;;;;;58.65;38.33;;;;;;;3.79;71.94;102903.13;5027899;28;20061;-88
2022/03/21 07:22:53;;;;;;;56.72;35.75;;;;;;;4.04;70.73;102903.34;5026712;28;20263;-87
2022/03/21 07:25:19;;;;;;;53.22;34.80;;;;;;;4.20;70.48;102900.00;5029167;28;20029;-88
2022/03/21 07:27:45;;;;;;;54.20;34.80;;;;;;;4.28;70.02;102900.94;5028920;28;20032;-88
2022/03/21 07:30:12;;;;;;;49.53;32.95;;;;;;;4.16;70.78;102901.72;5030007;28;20462;-88
2022/03/21 07:32:42;;;;;;;51.25;31.77;;;;;;;4.01;72.01;102896.28;5025683;28;20038;-87
2022/03/21 07:35:08;;;;;;;50.10;31.88;;;;;;;3.89;74.23;102905.00;5029937;28;20560;-87
2022/03/21 07:37:46;;;;;;;46.60;30.33;;;;;;;3.85;75.79;102897.03;5030761;28;20030;-87
2022/03/21 07:40:13;;;;;;;43.75;27.08;;;;;;;3.95;77.69;102906.78;5026919;28;20108;-88
2022/03/21 07:42:42;;;;;;;44.80;27.58;;;;;;;4.34;78.17;102908.88;5026778;28;20036;-87
2022/03/21 07:47:53;;;;;;;43.15;26.92;;;;;;;5.64;75.01;102906.94;5022432;28;20064;-87
2022/03/21 07:50:19;;;;;;;41.10;25.73;;;;;;;6.23;73.53;102907.94;5019782;28;20035;-86
2022/03/21 07:52:46;;;;;;;40.28;25.25;;;;;;;6.81;71.43;102906.97;5031421;28;20176;-85
2022/03/21 07:55:11;;;;;;;37.70;23.50;;;;;;;7.36;69.65;102909.47;5025878;28;20041;-87
2022/03/21 07:57:37;;;;;;;37.30;22.70;;;;;;;7.76;68.22;102906.59;5027768;28;20033;-87
2022/03/21 08:00:05;;;;;;;35.60;22.73;;;;;;;8.24;67.72;102905.38;5029165;28;20112;-87
2022/03/21 08:02:30;;;;;;;31.90;20.70;;;;;;;8.66;65.39;102895.28;5026859;28;20021;-86
2022/03/21 08:04:55;;;;;;;30.35;20.58;;;;;;;9.17;63.07;102901.78;5028112;28;20059;-86
2022/03/21 08:07:20;;;;;;;32.45;20.73;;;;;;;9.66;62.27;102894.94;5031745;28;20115;-87
2022/03/21 08:09:48;;;;;;;32.28;20.05;;;;;;;10.20;59.90;102901.19;5028647;28;20033;-86
2022/03/21 08:12:14;;;;;;;29.75;19.52;;;;;;;10.65;58.81;102895.09;5028299;28;20543;-86
2022/03/21 08:14:39;;;;;;;28.67;19.23;;;;;;;11.11;57.11;102897.75;5031588;28;20057;-86
2022/03/21 08:17:05;;;;;;;32.88;18.75;;;;;;;11.48;55.38;102899.66;5031150;28;20474;-86
2022/03/21 08:19:30;;;;;;;24.40;17.63;;;;;;;11.89;54.23;102895.19;5029251;28;20021;-87
2022/03/21 08:21:55;;;;;;;29.17;18.02;;;;;;;12.25;53.06;102896.09;5024993;28;20073;-87
2022/03/21 08:24:22;;;;;;;25.17;16.30;;;;;;;12.69;51.84;102899.41;5026944;28;20113;-85
2022/03/21 08:26:47;;;;;;;27.08;15.85;;;;;;;13.04;50.20;102897.53;5030828;28;20037;-87
2022/03/21 08:29:13;;;;;;;23.38;15.43;;;;;;;13.24;48.13;102886.28;5028415;28;20398;-86
2022/03/21 08:31:38;;;;;;;22.85;15.40;;;;;;;13.61;47.77;102902.13;5030059;28;20047;-87
2022/03/21 08:34:03;;;;;;;27.10;14.80;;;;;;;14.12;46.21;102901.38;5025702;28;20064;-86
2022/03/21 08:36:30;;;;;;;22.75;14.48;;;;;;;14.60;45.63;102889.97;5028829;28;20037;-86
2022/03/21 08:38:55;;;;;;;25.10;14.90;;;;;;;15.22;43.86;102902.00;5029527;28;20037;-87
2022/03/21 08:41:21;;;;;;;24.05;15.70;;;;;;;15.60;43.27;102892.47;5027431;28;20040;-86
2022/03/21 08:43:47;;;;;;;23.55;15.38;;;;;;;15.96;42.50;102900.00;5029452;28;20025;-86
2022/03/21 08:46:12;;;;;;;27.70;15.45;;;;;;;16.33;41.41;102896.66;5029135;28;20044;-86
2022/03/21 08:51:21;;;;;;;19.73;14.13;;;;;;;17.21;39.26;102891.88;5025089;28;20400;-85
2022/03/21 08:53:46;;;;;;;21.83;14.20;;;;;;;17.63;38.87;102888.97;5027301;28;20021;-86
2022/03/21 08:56:11;;;;;;;24.75;15.05;;;;;;;17.96;37.62;102896.41;5028088;28;20122;-85
2022/03/21 08:58:37;;;;;;;21.50;14.68;;;;;;;18.41;36.81;102887.81;5028982;28;20053;-85
2022/03/21 09:01:02;;;;;;;20.88;15.43;;;;;;;18.36;36.02;102891.72;5029898;28;20261;-85
2022/03/21 09:03:27;;;;;;;24.58;15.57;;;;;;;18.51;35.52;102887.34;5032064;28;20036;-84
2022/03/21 09:05:52;;;;;;;25.48;15.82;;;;;;;18.87;35.85;102896.22;5035427;28;20117;-85
2022/03/21 09:08:18;;;;;;;24.77;15.93;;;;;;;19.14;33.95;102890.28;5027566;28;20053;-84
2022/03/21 09:10:43;;;;;;;24.33;15.88;;;;;;;19.19;34.34;102898.13;5026653;28;20087;-84
2022/03/21 09:13:08;;;;;;;25.50;17.17;;;;;;;19.45;33.55;102886.78;5035855;28;20025;-86
2022/03/21 09:15:34;;;;;;;27.42;16.17;;;;;;;19.72;32.88;102895.16;5031243;28;20403;-86
2022/03/21 09:18:01;;;;;;;21.73;15.45;;;;;;;20.01;32.61;102879.97;5030413;28;20031;-85
2022/03/21 09:20:26;;;;;;;21.80;15.40;;;;;;;20.39;31.90;102880.38;5030955;28;20022;-86
2022/03/21 09:22:51;;;;;;;22.35;15.77;;;;;;;20.68;30.86;102880.50;5036382;28;20025;-81
2022/03/21 09:25:17;;;;;;;22.30;16.52;;;;;;;20.76;31.09;102883.59;5028067;28;20351;-81
2022/03/21 09:27:43;;;;;;;21.30;16.20;;;;;;;21.06;30.88;102875.38;5026577;28;20044;-81
2022/03/21 09:30:09;;;;;;;25.52;17.20;;;;;;;21.54;30.17;102886.81;5029542;28;20034;-81
2022/03/21 09:32:35;;;;;;;24.83;16.55;;;;;;;21.85;29.77;102873.94;5027246;28;20037;-80
2022/03/21 09:35:00;;;;;;;22.83;15.45;;;;;;;22.34;29.54;102879.66;5031252;28;20558;-81
2022/03/21 09:37:26;;;;;;;23.92;16.40;;;;;;;22.75;28.17;102878.63;5029283;28;20433;-80
2022/03/21 09:39:51;;;;;;;25.10;16.55;;;;;;;23.07;28.00;102883.63;5027496;28;20023;-80
2022/03/21 09:42:18;;;;;;;22.10;15.40;;;;;;;23.46;27.38;102876.31;5027883;28;20044;-81
2022/03/21 09:44:43;;;;;;;20.80;14.35;;;;;;;23.70;27.46;102879.97;5027664;28;20072;-81
2022/03/21 09:49:57;;;;;;;23.45;16.30;;;;;;;24.09;25.92;102869.78;5027628;28;20448;-80
2022/03/21 09:52:23;;;;;;;24.50;16.90;;;;;;;24.57;26.09;102869.69;5024014;28;20033;-79
2022/03/21 09:54:50;;;;;;;24.23;16.45;;;;;;;24.97;25.18;102866.53;5027267;28;20107;-80
2022/03/21 09:57:15;;;;;;;21.02;15.57;;;;;;;24.90;24.77;102859.84;5029441;28;20029;-80
2022/03/21 09:59:41;;;;;;;22.55;14.82;;;;;;;25.15;24.37;102866.94;5027733;28;20467;-80
2022/03/21 10:02:08;;;;;;;21.00;15.13;;;;;;;25.21;24.06;102870.06;5027789;28;20057;-80
2022/03/21 10:04:33;;;;;;;22.77;15.00;;;;;;;25.55;23.97;102872.72;5027622;28;20037;-80
2022/03/21 10:06:59;;;;;;;22.67;16.17;;;;;;;25.50;24.09;102866.75;5026883;28;20089;-80
2022/03/21 10:09:25;;;;;;;22.40;16.35;;;;;;;25.87;24.22;102848.22;5026912;28;20116;-81
2022/03/21 10:11:53;;;;;;;22.98;14.85;;;;;;;26.18;23.23;102856.56;5023633;28;20116;-80
2022/03/21 10:14:24;;;;;;;20.27;14.60;;;;;;;25.98;23.32;102863.69;5026909;28;20030;-80
2022/03/21 10:16:51;;;;;;;20.98;15.77;;;;;;;25.67;23.08;102863.53;5026499;28;20029;-80
2022/03/21 10:19:16;;;;;;;23.42;15.82;;;;;;;25.43;23.25;102865.56;5025711;28;20112;-80
2022/03/21 10:21:41;;;;;;;20.05;13.98;;;;;;;25.95;23.41;102855.75;5030297;28;20154;-80
2022/03/21 10:24:07;;;;;;;19.65;15.40;;;;;;;26.58;22.88;102854.84;5027026;28;20048;-80
2022/03/21 10:26:40;;;;;;;27.35;15.52;;;;;;;26.77;23.08;102866.91;5027387;28;20075;-80
2022/03/21 10:29:10;;;;;;;22.88;16.13;;;;;;;27.03;22.25;102861.84;5027001;28;20124;-80
2022/03/21 10:31:50;;;;;;;19.67;15.13;;;;;;;27.70;22.90;102861.19;5025004;28;20029;-79
2022/03/21 10:34:18;;;;;;;26.13;16.02;;;;;;;27.68;21.65;102856.91;5026534;28;20033;-79
2022/03/21 10:37:06;;;;;;;25.85;16.05;;;;;;;28.20;22.21;102854.78;5032454;28;20080;-80
2022/03/21 10:39:34;;;;;;;22.15;15.30;;;;;;;28.12;21.21;102854.63;5046718;28;20027;-80
2022/03/21 10:42:05;;;;;;;24.52;16.80;;;;;;;28.46;21.52;102849.56;5041170;28;20021;-80
2022/03/21 10:44:32;;;;;;;23.73;16.38;;;;;;;29.06;20.92;102855.63;5026699;28;20037;-80
2022/03/21 10:47:03;;;;;;;22.45;16.60;;;;;;;29.39;20.17;102851.44;5024631;28;20099;-80
2022/03/21 10:49:41;;;;;;;25.13;16.83;;;;;;;29.68;21.24;102851.25;5027059;28;20030;-81
2022/03/21 10:52:08;;;;;;;22.48;16.65;;;;;;;29.87;19.10;102858.47;5025252;28;20041;-81
2022/03/21 10:54:39;;;;;;;26.02;17.10;;;;;;;29.97;20.13;102844.66;5026846;28;20053;-80
2022/03/21 10:57:06;;;;;;;31.17;17.17;;;;;;;30.17;18.81;102850.88;5026554;28;20486;-81
2022/03/21 10:59:33;;;;;;;21.90;16.17;;;;;;;30.50;19.35;102847.34;5026882;28;20399;-81
2022/03/21 11:02:17;;;;;;;24.75;17.98;;;;;;;30.88;20.29;102847.09;5034865;28;20026;-80
2022/03/21 11:04:44;;;;;;;22.08;16.48;;;;;;;30.48;18.51;102845.81;5029022;28;20022;-80
2022/03/21 11:07:14;;;;;;;21.35;16.00;;;;;;;30.29;19.24;102838.63;5031749;28;20060;-80
2022/03/21 11:09:42;;;;;;;19.98;16.48;;;;;;;30.63;18.95;102844.19;5030898;28;20032;-79
2022/03/21 11:12:09;;;;;;;20.05;16.02;;;;;;;30.94;18.79;102846.47;5024550;28;20036;-79
2022/03/21 11:14:40;;;;;;;24.98;17.38;;;;;;;31.12;18.97;102830.72;5026116;28;20029;-78
2022/03/21 11:17:07;;;;;;;23.95;17.13;;;;;;;31.16;18.38;102840.38;5030256;28;20034;-79
2022/03/21 11:19:34;;;;;;;23.13;16.58;;;;;;;31.09;17.98;102836.53;5026872;28;20036;-79
2022/03/21 11:22:00;;;;;;;21.98;16.10;;;;;;;31.28;18.45;102832.69;5025730;28;20064;-79
2022/03/21 11:24:30;;;;;;;25.05;15.70;;;;;;;31.28;18.15;102840.06;5026268;28;21410;-79
2022/03/21 11:27:23;;;;;;;21.80;16.92;;;;;;;31.64;19.17;102836.06;5026350;28;20509;-79
2022/03/21 11:30:02;;;;;;;21.67;17.05;;;;;;;31.79;19.02;102833.50;5024241;28;20095;-79
2022/03/21 11:32:36;;;;;;;21.38;15.63;;;;;;;32.26;17.88;102826.47;5029588;28;20579;-79
2022/03/21 11:35:17;;;;;;;23.50;17.80;;;;;;;32.34;17.50;102823.72;5030082;28;20473;-79
2022/03/21 11:37:43;;;;;;;23.90;16.88;;;;;;;32.22;16.71;102824.06;5035296;28;20470;-79